Time;durP1;ratioP1;P1;durP2;ratioP2;P2;SDS_P1;SDS_P2;PMS_P1;PMS_P2;Temp;Humidity;BMP_temperature;BMP_pressure;BME280_temperature;BME280_humidity;BME280_pressure;Samples;Min_cycle;Max_cycle;Signal;HPM_P1;HPM_P2
2022/04/02 00:00:39;;;;;;;;;;;;;;;7.68;54.11;98039.88;4446971;32;20036;-83
2022/04/02 00:03:06;;;;;;;;;;;;;;;7.86;53.54;98021.81;4447190;32;20032;-84
2022/04/02 00:05:33;;;;;;;;;;;;;;;7.59;54.22;98027.00;4437121;32;20072;-84
2022/04/02 00:08:00;;;;;;;;;;;;;;;7.16;55.61;98021.88;4447361;32;19977;-82
2022/04/02 00:10:29;;;;;;;;;;;;;;;7.27;55.31;98030.44;4447110;32;19973;-81
2022/04/02 00:12:56;;;;;;;;;;;;;;;7.28;55.30;98032.19;4447074;32;19999;-80
2022/04/02 00:15:22;;;;;;;;;;;;;;;7.20;55.33;98024.44;4444391;32;20282;-81
2022/04/02 00:17:50;;;;;;;;;;;;;;;7.41;54.94;98033.91;4431887;32;20036;-83
2022/04/02 00:20:17;;;;;;;;;;;;;;;7.34;55.01;98041.59;4446220;32;19977;-80
2022/04/02 00:25:30;;;;;;;;;;;;;;;6.73;56.96;98037.25;4446673;32;19993;-82
2022/04/02 00:27:57;;;;;;;;;;;;;;;7.13;55.44;98027.03;4445394;32;19995;-83
2022/04/02 00:30:24;;;;;;;;;;;;;;;7.36;54.92;98014.16;4446995;32;19977;-82
2022/04/02 00:32:51;;;;;;;;;;;;;;;6.92;55.71;98013.31;4431626;32;20036;-80
2022/04/02 00:35:18;;;;;;;;;;;;;;;7.25;54.87;98006.44;4446124;32;19982;-83
2022/04/02 00:37:45;;;;;;;;;;;;;;;6.76;56.02;98008.97;4444366;32;19981;-83
2022/04/02 00:40:12;;;;;;;;;;;;;;;7.00;55.44;98008.16;4447006;32;19969;-83
2022/04/02 00:42:39;;;;;;;;;;;;;;;7.01;55.07;98006.44;4446925;32;20339;-78
2022/04/02 00:45:08;;;;;;;;;;;;;;;6.87;55.60;97998.72;4446844;32;20019;-82
2022/04/02 00:47:35;;;;;;;;;;;;;;;6.97;55.02;97995.28;4445858;32;19981;-78
2022/04/02 00:50:02;;;;;;;;;;;;;;;7.26;54.51;97992.72;4431993;32;20004;-79
2022/04/02 00:52:29;;;;;;;;;;;;;;;7.01;55.30;97997.00;4445717;32;20389;-80
2022/04/02 00:54:57;;;;;;;;;;;;;;;7.34;54.31;97993.59;4432310;32;20048;-84
2022/04/02 00:57:25;;;;;;;;;;;;;;;7.03;54.96;97999.59;4431369;32;19985;-83
2022/04/02 00:59:52;;;;;;;;;;;;;;;6.71;55.73;97998.69;4431658;32;20389;-80
2022/04/02 01:02:19;;;;;;;;;;;;;;;6.74;55.86;98003.00;4444714;32;20029;-82
2022/04/02 01:04:49;;;;;;;;;;;;;;;6.89;55.29;98003.03;4447354;32;20005;-84
2022/04/02 01:07:17;;;;;;;;;;;;;;;7.01;54.85;98001.28;4446990;32;19992;-84
2022/04/02 01:09:44;;;;;;;;;;;;;;;6.69;56.16;98007.25;4432765;32;20052;-79
2022/04/02 01:12:11;;;;;;;;;;;;;;;6.81;55.26;98009.84;4446980;32;20040;-83
2022/04/02 01:14:38;;;;;;;;;;;;;;;7.04;54.44;98011.59;4449154;32;20030;-81
2022/04/02 01:17:12;;;;;;;;;;;;;;;7.03;54.40;98015.03;4429424;32;20063;-82
2022/04/02 01:19:42;;;;;;;;;;;;;;;7.18;53.45;98025.34;4447014;32;19981;-83
2022/04/02 01:22:10;;;;;;;;;;;;;;;7.08;53.65;98023.59;4450759;32;20048;-84
2022/04/02 01:24:37;;;;;;;;;;;;;;;6.84;54.39;98035.56;4447349;32;19973;-78
2022/04/02 01:27:04;;;;;;;;;;;;;;;7.08;54.20;98039.03;4446836;32;19989;-83
2022/04/02 01:29:32;;;;;;;;;;;;;;;7.18;53.03;98045.91;4422410;32;20376;-81
2022/04/02 01:31:59;;;;;;;;;;;;;;;7.14;53.25;98054.47;4447252;32;20065;-79
2022/04/02 01:34:28;;;;;;;;;;;;;;;7.10;52.91;98047.63;4446977;32;19969;-86
2022/04/02 01:36:56;;;;;;;;;;;;;;;7.23;52.73;98059.63;4422560;32;20045;-78
2022/04/02 01:39:23;;;;;;;;;;;;;;;7.09;53.26;98051.06;4436652;32;19989;-82
2022/04/02 01:41:50;;;;;;;;;;;;;;;7.27;52.90;98051.03;4447075;32;20675;-82
2022/04/02 01:44:17;;;;;;;;;;;;;;;7.39;52.05;98053.62;4446296;32;19973;-79
2022/04/02 01:46:44;;;;;;;;;;;;;;;7.09;52.58;98056.19;4445797;32;19989;-78
2022/04/02 01:49:12;;;;;;;;;;;;;;;7.07;53.27;98055.31;4446697;32;19976;-78
2022/04/02 01:51:39;;;;;;;;;;;;;;;7.18;53.09;98056.22;4445014;32;19999;-78
2022/04/02 01:54:07;;;;;;;;;;;;;;;7.06;53.27;98056.19;4447019;32;19988;-84
2022/04/02 01:56:34;;;;;;;;;;;;;;;7.01;53.37;98068.19;4419866;32;20330;-79
2022/04/02 01:59:01;;;;;;;;;;;;;;;7.09;53.12;98063.91;4416752;32;20003;-83
2022/04/02 02:01:29;;;;;;;;;;;;;;;7.29;52.70;98072.50;4446314;32;19993;-79
2022/04/02 02:03:56;;;;;;;;;;;;;;;7.35;52.52;98075.06;4445877;32;20025;-81
2022/04/02 02:06:24;;;;;;;;;;;;;;;7.36;52.42;98071.63;4432711;32;20031;-79
2022/04/02 02:08:51;;;;;;;;;;;;;;;7.58;51.51;98066.50;4446859;32;19984;-81
2022/04/02 02:11:21;;;;;;;;;;;;;;;7.49;52.18;98071.63;4446075;32;19987;-79
2022/04/02 02:13:48;;;;;;;;;;;;;;;7.74;50.76;98081.06;4447072;32;21061;-78
2022/04/02 02:16:15;;;;;;;;;;;;;;;7.73;50.89;98075.94;4445807;32;20274;-85
2022/04/02 02:18:42;;;;;;;;;;;;;;;7.59;51.29;98079.34;4445067;32;19976;-86
2022/04/02 02:21:09;;;;;;;;;;;;;;;7.44;51.88;98090.53;4432651;32;19978;-84
2022/04/02 02:23:36;;;;;;;;;;;;;;;7.49;51.41;98087.09;4446598;32;20067;-80
2022/04/02 02:26:03;;;;;;;;;;;;;;;7.58;51.34;98087.09;4446567;32;19989;-82
2022/04/02 02:28:30;;;;;;;;;;;;;;;7.61;51.47;98087.09;4446217;32;19993;-84
2022/04/02 02:30:58;;;;;;;;;;;;;;;7.59;51.34;98087.06;4117475;32;10001833;-82
2022/04/02 02:36:11;;;;;;;;;;;;;;;7.52;51.73;98087.94;4445611;32;19989;-78
2022/04/02 02:38:39;;;;;;;;;;;;;;;7.51;51.33;98082.81;4445995;32;20044;-79
2022/04/02 02:41:10;;;;;;;;;;;;;;;7.50;51.45;98083.66;4432863;32;19985;-86
2022/04/02 02:43:38;;;;;;;;;;;;;;;7.29;51.64;98075.06;4432614;32;19985;-82
2022/04/02 02:46:05;;;;;;;;;;;;;;;7.54;50.83;98075.09;4431457;32;19965;-81
2022/04/02 02:48:33;;;;;;;;;;;;;;;7.40;51.17;98075.94;4446249;32;20384;-80
2022/04/02 02:51:00;;;;;;;;;;;;;;;7.36;51.26;98076.78;4445059;32;20370;-79
2022/04/02 02:53:28;;;;;;;;;;;;;;;7.27;51.38;98081.06;4444820;32;19977;-78
2022/04/02 02:55:55;;;;;;;;;;;;;;;7.15;51.88;98087.09;4445909;32;20044;-78
2022/04/02 02:58:22;;;;;;;;;;;;;;;7.39;51.42;98092.22;4446215;32;19977;-83
2022/04/02 03:00:49;;;;;;;;;;;;;;;7.34;51.18;98088.81;4446121;32;19995;-78
2022/04/02 03:03:16;;;;;;;;;;;;;;;7.32;51.71;98103.37;4443534;32;20001;-85
2022/04/02 03:05:45;;;;;;;;;;;;;;;7.32;51.17;98100.81;4438158;32;20820;-81
2022/04/02 03:08:12;;;;;;;;;;;;;;;7.17;51.72;98090.50;4443359;32;20040;-78
2022/04/02 03:10:40;;;;;;;;;;;;;;;7.22;51.68;98096.50;4446327;32;19977;-86
2022/04/02 03:13:08;;;;;;;;;;;;;;;7.30;51.69;98099.09;4445973;32;20015;-87
2022/04/02 03:15:36;;;;;;;;;;;;;;;7.21;51.87;98099.91;4442692;32;20018;-82
2022/04/02 03:18:04;;;;;;;;;;;;;;;7.09;52.20;98105.06;4446013;32;20754;-80
2022/04/02 03:20:34;;;;;;;;;;;;;;;7.17;51.52;98105.94;4446486;32;20036;-82
2022/04/02 03:23:00;;;;;;;;;;;;;;;7.08;52.20;98105.91;4434669;32;19977;-81
2022/04/02 03:25:27;;;;;;;;;;;;;;;6.96;52.41;98110.19;4431276;32;19985;-82
2022/04/02 03:27:55;;;;;;;;;;;;;;;7.03;52.12;98117.91;4431465;32;20084;-81
2022/04/02 03:30:24;;;;;;;;;;;;;;;7.23;51.70;98111.09;4445834;32;20003;-84
2022/04/02 03:32:52;;;;;;;;;;;;;;;7.32;51.58;98111.09;4445595;32;19995;-83
2022/04/02 03:35:19;;;;;;;;;;;;;;;7.04;52.46;98109.34;4445964;32;20064;-86
2022/04/02 03:37:47;;;;;;;;;;;;;;;7.25;51.71;98119.69;4445153;32;19989;-81
2022/04/02 03:40:16;;;;;;;;;;;;;;;7.28;51.40;98118.84;4446134;32;19996;-85
2022/04/02 03:42:46;;;;;;;;;;;;;;;7.31;51.30;98119.69;4445171;32;20502;-82
2022/04/02 03:45:16;;;;;;;;;;;;;;;7.33;51.11;98123.09;4431560;32;20001;-82
2022/04/02 03:47:44;;;;;;;;;;;;;;;7.13;52.00;98117.09;4444324;32;20053;-81
2022/04/02 03:50:12;;;;;;;;;;;;;;;6.94;52.72;98117.03;4445098;32;20030;-81
2022/04/02 03:52:39;;;;;;;;;;;;;;;7.06;52.49;98117.94;4429428;32;20318;-79
2022/04/02 03:55:09;;;;;;;;;;;;;;;7.23;52.24;98111.94;4430995;32;20020;-86
2022/04/02 03:57:37;;;;;;;;;;;;;;;7.04;52.78;98109.34;4444158;32;20027;-82
2022/04/02 04:00:06;;;;;;;;;;;;;;;6.80;53.11;98108.44;4445270;32;19981;-86
2022/04/02 04:02:38;;;;;;;;;;;;;;;6.87;53.34;98107.59;4444276;32;19981;-82
2022/04/02 04:05:08;;;;;;;;;;;;;;;7.00;52.63;98103.34;4433341;32;20083;-81
2022/04/02 04:07:36;;;;;;;;;;;;;;;6.83;53.12;98108.44;4446278;32;20060;-82
2022/04/02 04:10:04;;;;;;;;;;;;;;;7.07;52.29;98104.19;4445769;32;19977;-82
2022/04/02 04:12:32;;;;;;;;;;;;;;;7.10;52.28;98099.06;4447912;32;20266;-81
2022/04/02 04:14:59;;;;;;;;;;;;;;;7.12;52.22;98105.09;4432992;32;20680;-82
2022/04/02 04:17:26;;;;;;;;;;;;;;;7.19;52.11;98104.22;4431571;32;20002;-80
2022/04/02 04:19:53;;;;;;;;;;;;;;;6.97;52.58;98104.19;4447551;32;19993;-81
2022/04/02 04:22:20;;;;;;;;;;;;;;;6.88;52.87;98106.72;4447242;32;20019;-81
2022/04/02 04:24:49;;;;;;;;;;;;;;;6.91;53.04;98119.59;4446750;32;20231;-85
2022/04/02 04:27:17;;;;;;;;;;;;;;;7.04;52.79;98119.63;4447471;32;20048;-82
2022/04/02 04:29:44;;;;;;;;;;;;;;;7.12;52.12;98112.81;4448813;32;20006;-81
2022/04/02 04:32:11;;;;;;;;;;;;;;;7.12;52.05;98110.22;4447136;32;19981;-83
2022/04/02 04:34:39;;;;;;;;;;;;;;;6.99;52.98;98117.91;4447398;32;20040;-82
2022/04/02 04:37:06;;;;;;;;;;;;;;;7.10;52.73;98119.66;4446428;32;20060;-83
2022/04/02 04:39:34;;;;;;;;;;;;;;;7.23;51.73;98121.38;4447886;32;20289;-81
2022/04/02 04:42:01;;;;;;;;;;;;;;;7.05;52.75;98126.47;4420303;32;20368;-81
2022/04/02 04:44:28;;;;;;;;;;;;;;;7.33;52.11;98125.69;4113060;32;10003660;-84
2022/04/02 04:46:56;;;;;;;;;;;;;;;7.13;52.90;98135.09;4453846;32;20292;-82
2022/04/02 04:49:24;;;;;;;;;;;;;;;7.08;52.74;98132.50;4463062;32;20043;-84
2022/04/02 04:51:53;;;;;;;;;;;;;;;7.13;52.57;98124.81;4447323;32;19993;-80
2022/04/02 04:54:21;;;;;;;;;;;;;;;7.37;52.02;98130.00;4449005;32;19999;-83
2022/04/02 04:56:48;;;;;;;;;;;;;;;6.91;53.33;98129.88;4462314;32;19969;-81
2022/04/02 04:59:15;;;;;;;;;;;;;;;7.27;51.89;98125.66;4463443;32;20040;-79
2022/04/02 05:01:43;;;;;;;;;;;;;;;6.92;53.17;98131.63;4462932;32;19996;-83
2022/04/02 05:04:10;;;;;;;;;;;;;;;7.23;52.62;98126.53;4462453;32;20037;-84
2022/04/02 05:06:38;;;;;;;;;;;;;;;7.28;52.38;98129.97;4436783;32;20012;-82
2022/04/02 05:09:05;;;;;;;;;;;;;;;7.14;52.33;98132.50;4428427;32;19988;-81
2022/04/02 05:11:33;;;;;;;;;;;;;;;7.35;51.99;98136.84;4447549;32;19977;-80
2022/04/02 05:14:00;;;;;;;;;;;;;;;7.46;51.69;98137.69;4447077;32;20015;-86
2022/04/02 05:16:27;;;;;;;;;;;;;;;7.34;52.43;98140.28;4444071;32;20018;-79
2022/04/02 05:18:54;;;;;;;;;;;;;;;7.45;51.98;98143.72;4444286;32;19995;-83
2022/04/02 05:21:21;;;;;;;;;;;;;;;7.59;52.11;98145.44;4447114;32;19981;-86
2022/04/02 05:23:49;;;;;;;;;;;;;;;7.39;52.34;98151.44;4431405;32;19985;-82
2022/04/02 05:26:17;;;;;;;;;;;;;;;7.41;52.42;98157.44;4446161;32;19991;-81
2022/04/02 05:28:51;;;;;;;;;;;;;;;7.35;52.50;98167.72;4447564;32;20618;-84
2022/04/02 05:31:18;;;;;;;;;;;;;;;7.39;52.71;98161.72;4446416;32;20004;-81
2022/04/02 05:33:45;;;;;;;;;;;;;;;7.54;52.39;98157.47;4445116;32;20321;-79
2022/04/02 05:36:15;;;;;;;;;;;;;;;7.44;52.56;98162.59;4416950;32;19974;-83
2022/04/02 05:38:42;;;;;;;;;;;;;;;7.33;52.79;98169.44;4434820;32;20098;-77
2022/04/02 05:41:09;;;;;;;;;;;;;;;7.51;51.94;98167.75;4447556;32;19997;-82
2022/04/02 05:43:35;;;;;;;;;;;;;;;7.53;52.45;98166.03;4445855;32;19996;-81
2022/04/02 05:46:03;;;;;;;;;;;;;;;7.68;52.15;98163.47;4442783;32;20034;-79
2022/04/02 05:48:30;;;;;;;;;;;;;;;7.58;52.67;98169.47;4447182;32;20015;-85
2022/04/02 05:50:58;;;;;;;;;;;;;;;7.62;52.32;98166.03;4445394;32;19969;-77
2022/04/02 05:53:25;;;;;;;;;;;;;;;7.68;51.58;98160.91;4432342;32;20464;-79
2022/04/02 05:55:52;;;;;;;;;;;;;;;7.28;52.95;98165.16;4446880;32;19969;-78
2022/04/02 05:58:19;;;;;;;;;;;;;;;7.64;52.48;98177.22;4446701;32;19988;-77
2022/04/02 06:00:46;;;;;;;;;;;;;;;7.71;52.56;98176.34;4444105;32;20039;-76
2022/04/02 06:03:14;;;;;;;;;;;;;;;7.93;52.23;98172.91;4436614;32;19985;-77
2022/04/02 06:05:41;;;;;;;;;;;;;;;8.00;51.35;98172.91;4438851;32;20954;-79
2022/04/02 06:08:10;;;;;;;;;;;;;;;8.10;50.55;98164.31;4421723;32;19978;-83
2022/04/02 06:10:37;;;;;;;;;;;;;;;7.99;51.48;98172.06;4439295;32;20053;-83
2022/04/02 06:13:04;;;;;;;;;;;;;;;7.84;51.37;98172.91;4441088;32;19999;-82
2022/04/02 06:15:31;;;;;;;;;;;;;;;7.91;51.65;98179.81;4438343;32;20084;-77
2022/04/02 06:17:59;;;;;;;;;;;;;;;7.99;50.90;98182.38;4434936;32;20345;-83
2022/04/02 06:20:26;;;;;;;;;;;;;;;8.04;51.25;98190.09;4440701;32;19973;-85
2022/04/02 06:22:53;;;;;;;;;;;;;;;8.20;51.33;98181.50;4442939;32;20000;-77
2022/04/02 06:25:20;;;;;;;;;;;;;;;8.36;49.83;98188.34;4441424;32;19977;-84
2022/04/02 06:27:49;;;;;;;;;;;;;;;8.47;50.73;98195.25;4442436;32;20023;-84
2022/04/02 06:30:19;;;;;;;;;;;;;;;8.54;48.56;98190.06;4442340;32;19985;-81
2022/04/02 06:32:53;;;;;;;;;;;;;;;8.33;49.46;98185.78;4436107;32;19981;-84
2022/04/02 06:35:20;;;;;;;;;;;;;;;8.67;47.95;98193.44;4442565;32;19977;-80
2022/04/02 06:37:48;;;;;;;;;;;;;;;8.35;50.46;98191.78;4440637;32;19988;-80
2022/04/02 06:40:18;;;;;;;;;;;;;;;8.20;51.01;98191.81;4428743;32;20102;-80
2022/04/02 06:42:46;;;;;;;;;;;;;;;8.57;49.56;98196.94;4420191;32;19993;-86
2022/04/02 06:45:13;;;;;;;;;;;;;;;8.50;49.06;98200.38;4442107;32;19985;-83
2022/04/02 06:47:41;;;;;;;;;;;;;;;8.41;50.56;98190.09;4413619;32;20038;-80
2022/04/02 06:50:09;;;;;;;;;;;;;;;8.73;48.20;98198.59;4427605;32;20369;-83
2022/04/02 06:52:36;;;;;;;;;;;;;;;8.49;48.70;98198.69;4441014;32;20040;-84
2022/04/02 06:55:04;;;;;;;;;;;;;;;8.51;49.81;98202.09;4440717;32;19977;-82
2022/04/02 06:57:31;;;;;;;;;;;;;;;8.35;50.53;98196.06;4431319;32;20346;-86
2022/04/02 06:59:58;;;;;;;;;;;;;;;8.38;50.49;98202.13;4427150;32;20077;-80
2022/04/02 07:02:25;;;;;;;;;;;;;;;8.22;52.20;98205.53;4427390;32;19985;-78
2022/04/02 07:04:51;;;;;;;;;;;;;;;8.50;50.42;98195.22;4428243;32;19996;-80
2022/04/02 07:07:19;;;;;;;;;;;;;;;8.57;50.65;98207.25;4440441;32;19981;-91
2022/04/02 07:09:46;;;;;;;;;;;;;;;8.62;50.31;98205.53;4437309;32;19985;-85
2022/04/02 07:12:13;;;;;;;;;;;;;;;8.72;50.01;98206.34;4442395;32;20842;-83
2022/04/02 07:14:40;;;;;;;;;;;;;;;8.95;48.23;98206.28;4428347;32;20458;-77
2022/04/02 07:17:07;;;;;;;;;;;;;;;8.82;48.82;98206.31;4442255;32;19992;-73
2022/04/02 07:19:35;;;;;;;;;;;;;;;8.77;48.24;98218.34;4441424;32;19999;-74
2022/04/02 07:22:02;;;;;;;;;;;;;;;8.87;48.87;98215.75;4429603;32;19997;-83
2022/04/02 07:24:29;;;;;;;;;;;;;;;8.78;49.23;98227.84;4430036;32;20219;-73
2022/04/02 07:26:56;;;;;;;;;;;;;;;8.67;49.86;98223.56;4417125;32;20358;-74
2022/04/02 07:29:23;;;;;;;;;;;;;;;9.04;48.65;98217.41;4402727;32;866459;-78
2022/04/02 07:31:50;;;;;;;;;;;;;;;9.12;47.50;98219.94;4429027;32;20928;-73
2022/04/02 07:34:21;;;;;;;;;;;;;;;8.84;49.34;98217.50;4430406;32;19985;-74
2022/04/02 07:36:53;;;;;;;;;;;;;;;8.57;50.53;98212.41;4429570;32;19984;-76
2022/04/02 07:39:22;;;;;;;;;;;;;;;8.88;50.11;98217.50;4432238;32;19999;-74
2022/04/02 07:42:07;;;;;;;;;;;;;;;9.45;46.96;98212.94;4446763;32;20021;-73
2022/04/02 07:44:37;;;;;;;;;;;;;;;9.38;47.11;98221.56;4446699;32;19974;-72
2022/04/02 07:47:06;;;;;;;;;;;;;;;9.56;46.89;98229.19;4446928;32;19995;-74
2022/04/02 07:49:33;;;;;;;;;;;;;;;9.65;46.59;98226.56;4432102;32;20614;-72
2022/04/02 07:52:00;;;;;;;;;;;;;;;9.48;48.19;98231.00;4429639;32;20025;-72
2022/04/02 07:54:27;;;;;;;;;;;;;;;9.65;46.16;98236.91;4445540;32;19993;-72
2022/04/02 07:56:56;;;;;;;;;;;;;;;9.53;47.43;98236.97;4445113;32;20315;-72
2022/04/02 07:59:28;;;;;;;;;;;;;;;9.35;48.15;98229.31;4446571;32;20314;-73
2022/04/02 08:01:55;;;;;;;;;;;;;;;9.35;47.84;98239.63;4428400;32;20688;-72
2022/04/02 08:04:22;;;;;;;;;;;;;;;9.59;48.51;98238.66;4423305;32;20019;-76
2022/04/02 08:06:49;;;;;;;;;;;;;;;9.63;47.73;98237.78;4435713;32;20041;-72
2022/04/02 08:09:19;;;;;;;;;;;;;;;9.51;50.55;98241.31;4431344;32;20068;-73
2022/04/02 08:11:48;;;;;;;;;;;;;;;9.62;50.48;98236.06;4445022;32;19973;-73
2022/04/02 08:14:15;;;;;;;;;;;;;;;9.20;50.75;98245.75;4446968;32;19987;-72
2022/04/02 08:16:43;;;;;;;;;;;;;;;9.57;48.26;98241.25;4431631;32;19985;-72
2022/04/02 08:19:11;;;;;;;;;;;;;;;9.40;49.09;98238.75;4446105;32;19991;-71
2022/04/02 08:21:38;;;;;;;;;;;;;;;9.30;49.50;98248.28;4446815;32;20398;-74
2022/04/02 08:24:05;;;;;;;;;;;;;;;9.57;48.34;98246.41;4432028;32;20018;-72
2022/04/02 08:26:45;;;;;;;;;;;;;;;9.77;48.06;98244.59;4446618;32;20015;-71
2022/04/02 08:29:25;;;;;;;;;;;;;;;10.11;46.52;98244.31;4432938;32;20395;-72
2022/04/02 08:31:58;;;;;;;;;;;;;;;10.04;48.50;98252.16;4444870;32;19977;-71
2022/04/02 08:34:44;;;;;;;;;;;;;;;10.41;46.36;98260.50;4431492;32;19995;-73
2022/04/02 08:37:10;;;;;;;;;;;;;;;10.60;45.28;98256.88;4446816;32;19996;-76
2022/04/02 08:39:45;;;;;;;;;;;;;;;10.37;45.63;98261.38;4447280;32;20502;-81
2022/04/02 08:42:21;;;;;;;;;;;;;;;10.03;49.14;98261.63;4446462;32;19981;-78
2022/04/02 08:44:57;;;;;;;;;;;;;;;10.03;47.16;98266.81;4447031;32;19977;-79
2022/04/02 08:47:38;;;;;;;;;;;;;;;10.09;47.58;98263.31;4446455;32;20372;-81
2022/04/02 08:50:10;;;;;;;;;;;;;;;10.20;47.18;98269.25;4119652;32;10004003;-74
2022/04/02 08:52:43;;;;;;;;;;;;;;;10.12;48.27;98269.31;4418309;32;20037;-75
2022/04/02 08:55:10;;;;;;;;;;;;;;;10.51;46.10;98266.47;4419714;32;20040;-79
2022/04/02 08:57:45;;;;;;;;;;;;;;;10.48;46.00;98280.28;4416034;32;19974;-79
2022/04/02 09:00:12;;;;;;;;;;;;;;;10.08;49.26;98272.78;4397179;32;19993;-79
2022/04/02 09:03:02;;;;;;;;;;;;;;;10.34;46.29;98274.34;4402202;32;19989;-77
2022/04/02 09:05:32;;;;;;;;;;;;;;;10.15;47.20;98276.22;4401119;32;19997;-72
2022/04/02 09:08:18;;;;;;;;;;;;;;;10.52;45.72;98276.78;4417383;32;19986;-75
2022/04/02 09:10:57;;;;;;;;;;;;;;;10.51;46.81;98274.22;4407590;32;20005;-83
2022/04/02 09:13:33;;;;;;;;;;;;;;;10.57;45.76;98280.19;4416216;32;20402;-77
2022/04/02 09:16:00;;;;;;;;;;;;;;;10.17;47.50;98290.81;4388511;32;20018;-78
2022/04/02 09:18:34;;;;;;;;;;;;;;;10.45;45.63;98290.62;4420806;32;20452;-79
2022/04/02 09:21:03;;;;;;;;;;;;;;;10.03;47.39;98297.81;4416118;32;20020;-84
2022/04/02 09:23:30;;;;;;;;;;;;;;;10.33;45.93;98306.25;4404022;32;20028;-76
2022/04/02 09:26:05;;;;;;;;;;;;;;;10.21;48.18;98307.16;4443078;32;20080;-78
2022/04/02 09:28:41;;;;;;;;;;;;;;;10.49;45.87;98305.25;4462386;32;20312;-83
2022/04/02 09:31:14;;;;;;;;;;;;;;;10.56;45.17;98299.19;4443716;32;20003;-84
2022/04/02 09:33:47;;;;;;;;;;;;;;;10.46;45.96;98298.41;4462665;32;20014;-81
2022/04/02 09:36:46;;;;;;;;;;;;;;;10.62;45.38;98303.41;4462227;32;19981;-80
2022/04/02 09:39:28;;;;;;;;;;;;;;;9.78;48.35;98307.44;4443965;32;20303;-82
2022/04/02 09:41:58;;;;;;;;;;;;;;;10.18;47.33;98309.81;4447830;32;19981;-84
2022/04/02 09:44:34;;;;;;;;;;;;;;;10.21;47.63;98318.38;4432460;32;20003;-83
2022/04/02 09:47:21;;;;;;;;;;;;;;;10.83;44.52;98312.72;4448145;32;20006;-80
2022/04/02 09:50:03;;;;;;;;;;;;;;;9.96;47.59;98319.41;4460242;32;19968;-84
2022/04/02 09:52:30;;;;;;;;;;;;;;;10.00;48.88;98321.09;4446940;32;20000;-79
2022/04/02 09:55:03;;;;;;;;;;;;;;;10.11;47.29;98327.06;4462145;32;19985;-83
2022/04/02 09:57:33;;;;;;;;;;;;;;;10.51;46.21;98321.63;4434361;32;19973;-76
2022/04/02 10:00:03;;;;;;;;;;;;;;;9.94;48.38;98331.47;4458986;32;19969;-73
2022/04/02 10:02:37;;;;;;;;;;;;;;;10.53;46.72;98329.38;4446898;32;19985;-81
2022/04/02 10:05:07;;;;;;;;;;;;;;;10.61;46.35;98337.94;4462178;32;20030;-83
2022/04/02 10:07:53;;;;;;;;;;;;;;;10.97;44.22;98331.56;4435786;32;20564;-84
2022/04/02 10:10:20;;;;;;;;;;;;;;;10.62;45.20;98334.47;4462206;32;20335;-84
2022/04/02 10:12:47;;;;;;;;;;;;;;;10.83;44.92;98328.25;4437917;32;20027;-83
2022/04/02 10:15:14;;;;;;;;;;;;;;;10.80;45.64;98338.63;4438814;32;20001;-84
2022/04/02 10:17:43;;;;;;;;;;;;;;;10.78;45.57;98330.03;4445442;32;19981;-83
2022/04/02 10:20:10;;;;;;;;;;;;;;;10.80;45.48;98333.47;4447615;32;19981;-84
2022/04/02 10:22:39;;;;;;;;;;;;;;;10.81;45.26;98337.75;4447456;32;20220;-77
2022/04/02 10:25:06;;;;;;;;;;;;;;;10.35;47.22;98345.91;4447966;32;19999;-80
2022/04/02 10:27:35;;;;;;;;;;;;;;;10.41;46.72;98340.69;4447922;32;20344;-82
2022/04/02 10:30:05;;;;;;;;;;;;;;;10.78;44.81;98340.37;4446431;32;20004;-80
2022/04/02 10:32:37;;;;;;;;;;;;;;;10.48;47.17;98332.00;4447114;32;20039;-80
2022/04/02 10:35:06;;;;;;;;;;;;;;;10.45;46.00;98327.72;4462275;32;19973;-75
2022/04/02 10:37:40;;;;;;;;;;;;;;;10.69;46.12;98331.84;4447647;32;19985;-73
2022/04/02 10:40:11;;;;;;;;;;;;;;;10.24;45.74;98331.31;4435858;32;20054;-88
2022/04/02 10:42:42;;;;;;;;;;;;;;;10.49;45.47;98328.53;4430631;32;20035;-75
2022/04/02 10:45:13;;;;;;;;;;;;;;;10.69;44.87;98331.84;4446443;32;19988;-84
2022/04/02 10:47:42;;;;;;;;;;;;;;;10.66;45.48;98338.78;4445907;32;19973;-78
2022/04/02 10:50:09;;;;;;;;;;;;;;;10.63;45.31;98342.25;4445547;32;19988;-85
2022/04/02 10:52:36;;;;;;;;;;;;;;;10.54;45.43;98346.63;4415097;32;19989;-84
2022/04/02 10:55:04;;;;;;;;;;;;;;;10.74;44.99;98346.47;4445641;32;20022;-84
2022/04/02 10:57:32;;;;;;;;;;;;;;;10.63;45.73;98344.81;4403747;32;20080;-72
2022/04/02 11:00:00;;;;;;;;;;;;;;;10.60;47.14;98352.63;4431438;32;19973;-76
2022/04/02 11:02:33;;;;;;;;;;;;;;;10.77;45.90;98349.03;4461633;32;20037;-76
2022/04/02 11:05:03;;;;;;;;;;;;;;;11.05;44.22;98359.97;4458976;32;20699;-73
2022/04/02 11:07:31;;;;;;;;;;;;;;;10.50;45.49;98361.31;4432548;32;20114;-84
2022/04/02 11:10:01;;;;;;;;;;;;;;;10.46;45.64;98367.38;4461720;32;19998;-83
2022/04/02 11:12:45;;;;;;;;;;;;;;;10.39;46.60;98369.13;4446709;32;20469;-82
2022/04/02 11:15:12;;;;;;;;;;;;;;;10.37;47.43;98370.00;4463244;32;19972;-77
2022/04/02 11:17:43;;;;;;;;;;;;;;;10.57;46.93;98370.75;4448478;32;20000;-78
2022/04/02 11:20:42;;;;;;;;;;;;;;;10.82;44.20;98363.66;4463331;32;19977;-78
2022/04/02 11:23:12;;;;;;;;;;;;;;;10.55;45.36;98363.88;4435406;32;19993;-74
2022/04/02 11:25:54;;;;;;;;;;;;;;;10.07;48.08;98365.88;4456298;32;19996;-75
2022/04/02 11:28:22;;;;;;;;;;;;;;;10.53;46.47;98371.66;4449105;32;19995;-82
2022/04/02 11:30:53;;;;;;;;;;;;;;;10.59;47.38;98371.59;4451169;32;20026;-73
2022/04/02 11:33:20;;;;;;;;;;;;;;;10.85;44.52;98367.94;4447859;32;19976;-74
2022/04/02 11:35:55;;;;;;;;;;;;;;;10.60;46.06;98368.13;4463380;32;19984;-78
2022/04/02 11:38:22;;;;;;;;;;;;;;;10.44;47.13;98371.72;4462763;32;19992;-75
2022/04/02 11:40:56;;;;;;;;;;;;;;;10.43;47.32;98375.16;4463259;32;19988;-74
2022/04/02 11:43:32;;;;;;;;;;;;;;;10.22;48.14;98370.97;4462864;32;20033;-81
2022/04/02 11:46:00;;;;;;;;;;;;;;;10.48;47.42;98383.75;4463103;32;20014;-85
2022/04/02 11:48:32;;;;;;;;;;;;;;;10.67;46.95;98380.16;4462566;32;20018;-79
2022/04/02 11:51:13;;;;;;;;;;;;;;;10.59;46.77;98371.59;4454424;32;19977;-74
2022/04/02 11:53:40;;;;;;;;;;;;;;;10.47;47.22;98372.53;4454701;32;20318;-77
2022/04/02 11:56:21;;;;;;;;;;;;;;;10.53;47.46;98382.00;4456469;32;20018;-77
2022/04/02 11:58:48;;;;;;;;;;;;;;;10.60;46.16;98378.50;4438665;32;20039;-77
2022/04/02 12:01:15;;;;;;;;;;;;;;;10.80;45.90;98375.72;4438907;32;20001;-78
2022/04/02 12:03:42;;;;;;;;;;;;;;;10.62;46.34;98379.31;4443043;32;19985;-79
2022/04/02 12:06:09;;;;;;;;;;;;;;;10.85;45.44;98375.72;4456239;32;20010;-73
2022/04/02 12:08:36;;;;;;;;;;;;;;;10.64;46.75;98375.00;4444619;32;20038;-75
2022/04/02 12:11:03;;;;;;;;;;;;;;;10.80;46.42;98374.88;4441706;32;20000;-77
2022/04/02 12:13:30;;;;;;;;;;;;;;;10.77;48.07;98380.94;4384822;32;19990;-80
2022/04/02 12:16:01;;;;;;;;;;;;;;;10.95;46.90;98374.75;4436940;32;20042;-79
2022/04/02 12:18:29;;;;;;;;;;;;;;;11.04;47.45;98378.97;4446823;32;20342;-81
2022/04/02 12:21:04;;;;;;;;;;;;;;;10.81;48.89;98376.59;4444812;32;19985;-73
2022/04/02 12:23:33;;;;;;;;;;;;;;;11.16;46.73;98371.94;4424962;32;20040;-74
2022/04/02 12:26:00;;;;;;;;;;;;;;;11.15;46.33;98372.81;4431667;32;20033;-73
2022/04/02 12:28:27;;;;;;;;;;;;;;;11.03;47.20;98379.84;4447479;32;20285;-78
2022/04/02 12:31:01;;;;;;;;;;;;;;;11.02;47.92;98385.91;4446068;32;19969;-72
2022/04/02 12:33:28;;;;;;;;;;;;;;;11.06;47.33;98383.25;4447367;32;20042;-74
2022/04/02 12:35:56;;;;;;;;;;;;;;;10.73;47.68;98381.84;4447330;32;19985;-74
2022/04/02 12:38:34;;;;;;;;;;;;;;;10.30;49.70;98389.03;4446392;32;19989;-83
2022/04/02 12:41:20;;;;;;;;;;;;;;;10.17;49.92;98389.06;4445385;32;20019;-75
2022/04/02 12:43:47;;;;;;;;;;;;;;;10.12;52.44;98401.19;4446986;32;19985;-76
2022/04/02 12:46:25;;;;;;;;;;;;;;;10.71;47.40;98387.00;4432617;32;20019;-77
2022/04/02 12:48:52;;;;;;;;;;;;;;;10.45;47.96;98384.63;4438893;32;20004;-77
2022/04/02 12:51:19;;;;;;;;;;;;;;;10.24;50.17;98398.53;4445220;32;20321;-73
2022/04/02 12:53:47;;;;;;;;;;;;;;;10.34;48.96;98396.78;4462071;32;19991;-76
2022/04/02 12:56:22;;;;;;;;;;;;;;;10.00;50.69;98396.06;4462090;32;20005;-80
2022/04/02 12:58:50;;;;;;;;;;;;;;;10.34;50.81;98401.06;4460197;32;19977;-72
2022/04/02 13:01:27;;;;;;;;;;;;;;;10.28;49.91;98396.81;4450197;32;19984;-87
2022/04/02 13:04:08;;;;;;;;;;;;;;;10.24;50.37;98388.19;4456161;32;20000;-81
2022/04/02 13:06:45;;;;;;;;;;;;;;;10.29;50.44;98392.50;4445306;32;19995;-76
2022/04/02 13:09:16;;;;;;;;;;;;;;;10.40;49.81;98395.88;4451093;32;20000;-75